createdAt,value
2022-11-17T00:00:21.680Z,2.85
2022-11-17T00:03:09.148Z,3.05
2022-11-17T00:05:42.446Z,2.92
2022-11-17T00:08:15.343Z,2.65
2022-11-17T00:10:48.192Z,2.70
2022-11-17T00:13:39.043Z,2.50
2022-11-17T00:16:19.795Z,2.50
2022-11-17T00:21:43.387Z,2.22
2022-11-17T00:24:17.235Z,2.80
2022-11-17T00:27:02.017Z,2.63
2022-11-17T00:29:38.666Z,2.13
2022-11-17T00:32:32.346Z,2.38
2022-11-17T00:35:06.113Z,2.53
2022-11-17T00:38:00.666Z,2.30
2022-11-17T00:40:33.246Z,2.70
2022-11-17T00:43:06.168Z,2.80
2022-11-17T00:45:38.761Z,2.42
2022-11-17T00:48:12.600Z,2.65
2022-11-17T00:50:45.238Z,3.10
2022-11-17T00:53:18.117Z,2.35
2022-11-17T00:55:50.771Z,2.13
2022-11-17T00:58:23.704Z,2.53
2022-11-17T01:00:56.294Z,2.35
2022-11-17T01:03:29.302Z,2.33
2022-11-17T01:06:13.710Z,2.72
2022-11-17T01:08:47.379Z,2.40
2022-11-17T01:11:20.126Z,2.30
2022-11-17T01:13:55.928Z,2.80
2022-11-17T01:16:30.631Z,2.38
2022-11-17T01:19:04.445Z,2.38
2022-11-17T01:21:37.150Z,2.53
2022-11-17T01:24:11.736Z,2.58
2022-11-17T01:26:45.889Z,2.92
2022-11-17T01:29:18.825Z,2.42
2022-11-17T01:31:52.592Z,2.15
2022-11-17T01:34:25.482Z,2.40
2022-11-17T01:37:16.273Z,2.05
2022-11-17T01:39:50.342Z,2.70
2022-11-17T01:42:25.207Z,2.47
2022-11-17T01:45:01.154Z,2.30
2022-11-17T01:48:02.892Z,2.13
2022-11-17T01:50:49.373Z,2.70
2022-11-17T01:53:23.394Z,2.35
2022-11-17T01:56:00.877Z,2.55
2022-11-17T01:58:41.745Z,2.55
2022-11-17T02:01:14.682Z,2.08
2022-11-17T02:03:49.974Z,2.53
2022-11-17T02:06:30.289Z,2.42
2022-11-17T02:09:04.168Z,2.50
2022-11-17T02:11:36.993Z,3.15
2022-11-17T02:14:09.473Z,2.30
2022-11-17T02:16:42.194Z,2.63
2022-11-17T02:19:16.858Z,2.50
2022-11-17T02:21:55.512Z,2.13
2022-11-17T02:25:12.093Z,2.85
2022-11-17T02:27:57.021Z,2.83
2022-11-17T02:30:38.171Z,3.40
2022-11-17T02:33:39.261Z,2.75
2022-11-17T02:36:20.964Z,2.20
2022-11-17T02:38:56.846Z,2.90
2022-11-17T02:42:11.303Z,3.00
2022-11-17T02:44:55.258Z,2.35
2022-11-17T02:47:30.400Z,3.30
2022-11-17T02:50:08.909Z,2.22
2022-11-17T02:52:41.487Z,3.45
2022-11-17T02:55:14.466Z,2.85
2022-11-17T02:57:47.002Z,3.03
2022-11-17T03:00:20.767Z,3.13
2022-11-17T03:03:05.219Z,3.53
2022-11-17T03:06:15.518Z,2.60
2022-11-17T03:08:52.320Z,2.70
2022-11-17T03:11:38.339Z,3.22
2022-11-17T03:14:32.789Z,3.10
2022-11-17T03:17:32.679Z,3.03
2022-11-17T03:20:23.345Z,3.03
2022-11-17T03:23:21.711Z,2.28
2022-11-17T03:25:59.877Z,2.40
2022-11-17T03:28:33.662Z,3.22
2022-11-17T03:31:09.353Z,3.25
2022-11-17T03:33:45.000Z,2.63
2022-11-17T03:36:22.511Z,2.83
2022-11-17T03:39:15.692Z,3.00
2022-11-17T03:41:51.259Z,2.55
2022-11-17T03:44:27.436Z,2.28
2022-11-17T03:47:20.510Z,3.08
2022-11-17T03:50:11.367Z,2.90
2022-11-17T03:52:44.567Z,2.08
2022-11-17T03:55:17.642Z,3.25
2022-11-17T03:58:15.277Z,2.92
2022-11-17T04:00:52.066Z,3.30
2022-11-17T04:03:30.897Z,3.25
2022-11-17T04:06:04.126Z,2.78
2022-11-17T04:08:36.574Z,2.55
2022-11-17T04:11:27.794Z,2.88
2022-11-17T04:14:19.058Z,2.65
2022-11-17T04:16:51.818Z,2.88
2022-11-17T04:19:24.272Z,3.15
2022-11-17T04:21:56.989Z,3.10
2022-11-17T04:24:29.456Z,3.30
2022-11-17T04:27:20.598Z,2.85
2022-11-17T04:29:53.068Z,2.75
2022-11-17T04:32:25.803Z,2.72
2022-11-17T04:34:58.262Z,2.50
2022-11-17T04:37:31.079Z,2.92
2022-11-17T04:40:03.940Z,2.92
2022-11-17T04:42:36.711Z,2.80
2022-11-17T04:45:09.799Z,3.42
2022-11-17T04:47:42.528Z,2.72
2022-11-17T04:50:15.222Z,3.33
2022-11-17T04:52:47.948Z,3.10
2022-11-17T04:55:20.405Z,3.08
2022-11-17T04:57:53.144Z,3.17
2022-11-17T05:00:25.595Z,3.15
2022-11-17T05:02:58.321Z,2.85
2022-11-17T05:05:30.940Z,2.75
2022-11-17T05:08:03.700Z,2.72
2022-11-17T05:10:54.610Z,2.72
2022-11-17T05:13:27.499Z,3.47
2022-11-17T05:16:18.659Z,3.75
2022-11-17T05:18:51.440Z,2.60
2022-11-17T05:21:23.925Z,3.97
2022-11-17T05:23:56.838Z,2.78
2022-11-17T05:26:32.249Z,3.22
2022-11-17T05:29:06.774Z,2.80
2022-11-17T05:31:40.666Z,3.50
2022-11-17T05:34:15.932Z,3.38
2022-11-17T05:36:48.521Z,3.05
2022-11-17T05:39:21.251Z,2.67
2022-11-17T05:41:53.729Z,3.30
2022-11-17T05:44:26.730Z,3.20
2022-11-17T05:46:59.475Z,2.17
2022-11-17T05:49:32.215Z,2.65
2022-11-17T05:52:04.849Z,2.50
2022-11-17T05:54:37.613Z,3.03
2022-11-17T05:57:14.362Z,3.97
2022-11-17T05:59:53.072Z,3.13
2022-11-17T06:02:40.453Z,3.35
2022-11-17T06:05:19.860Z,3.80
2022-11-17T06:08:00.259Z,3.03
2022-11-17T06:10:34.589Z,2.72
2022-11-17T06:13:07.429Z,4.70
2022-11-17T06:15:39.997Z,3.78
2022-11-17T06:18:16.958Z,3.70
2022-11-17T06:20:52.213Z,3.65
2022-11-17T06:23:28.793Z,3.90
2022-11-17T06:26:05.586Z,4.13
2022-11-17T06:28:41.143Z,2.30
2022-11-17T06:31:14.561Z,4.18
2022-11-17T06:33:47.723Z,4.95
2022-11-17T06:36:20.716Z,3.88
2022-11-17T06:38:53.477Z,4.57
2022-11-17T06:41:25.989Z,3.60
2022-11-17T06:43:58.852Z,4.32
2022-11-17T06:46:38.073Z,4.25
2022-11-17T06:49:10.876Z,4.70
2022-11-17T06:51:45.439Z,5.50
2022-11-17T06:54:18.426Z,4.43
2022-11-17T06:56:52.493Z,4.63
2022-11-17T06:59:25.282Z,5.00
2022-11-17T07:01:57.750Z,5.00
2022-11-17T07:04:30.706Z,4.55
2022-11-17T07:07:03.406Z,4.45
2022-11-17T07:09:36.182Z,5.03
2022-11-17T07:12:08.679Z,4.82
2022-11-17T07:14:41.512Z,4.97
2022-11-17T07:17:13.986Z,4.95
2022-11-17T07:19:46.719Z,4.30
2022-11-17T07:22:19.318Z,4.63
2022-11-17T07:24:52.110Z,5.95
2022-11-17T07:27:24.572Z,4.95
2022-11-17T07:30:01.046Z,4.65
2022-11-17T07:32:37.304Z,6.00
2022-11-17T07:35:10.290Z,4.88
2022-11-17T07:37:42.776Z,5.07
2022-11-17T07:40:16.024Z,5.60
2022-11-17T07:42:49.988Z,5.82
2022-11-17T07:45:28.680Z,6.43
2022-11-17T07:48:06.012Z,6.28
2022-11-17T07:50:40.984Z,6.63
2022-11-17T07:53:14.145Z,6.28
2022-11-17T07:55:46.912Z,5.90
2022-11-17T07:58:19.631Z,3.92
2022-11-17T08:00:52.585Z,5.38
2022-11-17T08:03:25.317Z,5.50
2022-11-17T08:06:02.865Z,5.68
2022-11-17T08:08:36.482Z,5.68
2022-11-17T08:11:11.705Z,6.40
2022-11-17T08:13:44.197Z,6.72
2022-11-17T08:16:17.071Z,5.82
2022-11-17T08:18:52.320Z,6.32
2022-11-17T08:21:25.935Z,6.43
2022-11-17T08:23:58.444Z,4.47
2022-11-17T08:26:31.185Z,7.25
2022-11-17T08:29:04.448Z,6.57
2022-11-17T08:31:37.502Z,6.65
2022-11-17T08:34:10.041Z,6.57
2022-11-17T08:36:42.956Z,6.10
2022-11-17T08:39:15.518Z,6.15
2022-11-17T08:41:48.262Z,6.80
2022-11-17T08:44:20.733Z,7.10
2022-11-17T08:46:53.733Z,6.80
2022-11-17T08:49:26.225Z,6.57
2022-11-17T08:51:58.959Z,6.10
2022-11-17T08:54:31.536Z,6.38
2022-11-17T08:57:04.349Z,6.70
2022-11-17T08:59:36.915Z,5.50
2022-11-17T09:02:12.356Z,6.70
2022-11-17T09:04:46.194Z,5.72
2022-11-17T09:07:19.042Z,5.95
2022-11-17T09:09:51.587Z,5.72
2022-11-17T09:12:24.358Z,5.07
2022-11-17T09:14:56.857Z,5.65
2022-11-17T09:17:31.237Z,5.72
2022-11-17T09:20:03.913Z,5.60
2022-11-17T09:22:36.665Z,4.63
2022-11-17T09:25:13.370Z,5.05
2022-11-17T09:27:49.844Z,5.90
2022-11-17T09:30:23.197Z,5.85
2022-11-17T09:32:55.952Z,7.00
2022-11-17T09:35:28.434Z,7.20
2022-11-17T09:38:01.786Z,7.07
2022-11-17T09:40:38.003Z,6.10
2022-11-17T09:43:28.852Z,7.07
2022-11-17T09:46:12.170Z,6.90
2022-11-17T09:48:53.685Z,4.95
2022-11-17T09:51:29.817Z,4.88
2022-11-17T09:54:24.424Z,4.95
2022-11-17T09:56:59.174Z,4.78
2022-11-17T09:59:36.844Z,4.50
2022-11-17T10:02:10.941Z,4.03
2022-11-17T10:04:43.991Z,4.70
2022-11-17T10:07:16.938Z,3.95
2022-11-17T10:09:51.847Z,3.63
2022-11-17T10:12:31.578Z,3.65
2022-11-17T10:15:45.760Z,3.95
2022-11-17T10:18:18.558Z,3.67
2022-11-17T10:20:51.553Z,3.80
2022-11-17T10:23:28.390Z,3.67
2022-11-17T10:26:01.436Z,4.32
2022-11-17T10:28:34.002Z,3.97
2022-11-17T10:31:13.793Z,4.57
2022-11-17T10:33:50.945Z,3.87
2022-11-17T10:36:26.282Z,3.83
2022-11-17T10:39:00.274Z,4.03
2022-11-17T10:41:40.204Z,4.05
2022-11-17T10:44:13.103Z,4.25
2022-11-17T10:47:01.703Z,3.88
2022-11-17T10:49:38.508Z,3.78
2022-11-17T10:52:19.027Z,4.10
2022-11-17T10:54:52.522Z,4.10
2022-11-17T10:57:26.870Z,4.20
2022-11-17T10:59:59.752Z,4.70
2022-11-17T11:02:38.295Z,4.88
2022-11-17T11:05:30.746Z,4.30
2022-11-17T11:08:27.226Z,4.70
2022-11-17T11:11:36.534Z,4.07
2022-11-17T11:14:42.114Z,4.93
2022-11-17T11:17:17.019Z,4.43
2022-11-17T11:19:52.990Z,4.30
2022-11-17T11:22:45.584Z,4.40
2022-11-17T11:25:24.578Z,4.60
2022-11-17T11:28:18.254Z,3.92
2022-11-17T11:31:28.020Z,5.10
2022-11-17T11:34:15.514Z,3.72
2022-11-17T11:37:00.083Z,4.07
2022-11-17T11:39:42.276Z,4.85
2022-11-17T11:42:35.147Z,4.53
2022-11-17T11:45:28.614Z,4.00
2022-11-17T11:48:17.894Z,4.07
2022-11-17T11:50:59.407Z,4.23
2022-11-17T11:53:50.444Z,5.00
2022-11-17T11:56:46.167Z,5.07
2022-11-17T11:59:37.241Z,5.13
2022-11-17T12:02:12.978Z,4.57
2022-11-17T12:04:58.485Z,4.25
2022-11-17T12:07:44.070Z,4.65
2022-11-17T12:10:34.374Z,4.35
2022-11-17T12:13:15.965Z,5.20
2022-11-17T12:15:48.426Z,4.18
2022-11-17T12:18:21.245Z,5.60
2022-11-17T12:21:02.965Z,5.15
2022-11-17T12:23:57.221Z,4.47
2022-11-17T12:26:32.529Z,4.65
2022-11-17T12:29:20.560Z,4.80
2022-11-17T12:31:55.970Z,5.15
2022-11-17T12:34:31.765Z,5.28
2022-11-17T12:37:20.862Z,5.30
2022-11-17T12:39:58.257Z,4.88
2022-11-17T12:42:33.054Z,4.70
2022-11-17T12:45:11.109Z,5.45
2022-11-17T12:47:54.817Z,5.70
2022-11-17T12:50:52.968Z,4.78
2022-11-17T12:54:13.145Z,5.55
2022-11-17T12:56:58.155Z,5.38
2022-11-17T13:00:09.514Z,5.35
2022-11-17T13:03:10.098Z,4.93
2022-11-17T13:05:42.626Z,5.63
2022-11-17T13:08:20.186Z,4.85
2022-11-17T13:11:04.959Z,5.25
2022-11-17T13:13:41.410Z,5.82
2022-11-17T13:16:20.558Z,4.90
2022-11-17T13:18:53.329Z,5.22
2022-11-17T13:21:25.832Z,5.00
2022-11-17T13:24:00.516Z,5.55
2022-11-17T13:26:38.921Z,5.88
2022-11-17T13:29:19.150Z,5.40
2022-11-17T13:32:12.833Z,4.90
2022-11-17T13:34:51.381Z,5.15
2022-11-17T13:37:26.904Z,6.10
2022-11-17T13:40:02.974Z,5.35
2022-11-17T13:42:35.693Z,5.38
2022-11-17T13:45:16.349Z,5.05
2022-11-17T13:50:31.385Z,4.68
2022-11-17T13:53:13.454Z,5.70
2022-11-17T13:55:47.702Z,4.88
2022-11-17T13:58:29.986Z,4.90
2022-11-17T14:01:02.887Z,5.70
2022-11-17T14:03:41.485Z,5.30
2022-11-17T14:06:14.868Z,5.22
2022-11-17T14:09:03.954Z,5.53
2022-11-17T14:11:41.556Z,5.55
2022-11-17T14:14:18.558Z,6.15
2022-11-17T14:16:51.539Z,5.30
2022-11-17T14:19:48.163Z,5.80
2022-11-17T14:22:30.984Z,4.80
2022-11-17T14:25:10.866Z,5.20
2022-11-17T14:27:53.201Z,4.75
2022-11-17T14:30:26.538Z,5.20
2022-11-17T14:33:06.339Z,5.72
2022-11-17T14:35:42.946Z,5.07
2022-11-17T14:38:21.768Z,5.22
2022-11-17T14:40:54.387Z,5.45
2022-11-17T14:43:27.136Z,5.22
2022-11-17T14:45:59.602Z,4.90
2022-11-17T14:48:32.410Z,4.57
2022-11-17T14:51:04.905Z,5.35
2022-11-17T14:53:41.920Z,5.03
2022-11-17T14:56:17.854Z,5.43
2022-11-17T14:58:59.232Z,5.18
2022-11-17T15:01:34.801Z,5.72
2022-11-17T15:04:34.555Z,5.70
2022-11-17T15:07:00.205Z,5.07
2022-11-17T15:09:33.341Z,5.28
2022-11-17T15:12:06.215Z,5.47
2022-11-17T15:14:39.435Z,5.82
2022-11-17T15:17:14.336Z,5.20
2022-11-17T15:19:47.567Z,5.47
2022-11-17T15:22:20.026Z,6.00
2022-11-17T15:24:52.836Z,6.00
2022-11-17T15:27:25.363Z,5.03
2022-11-17T15:29:58.119Z,5.10
2022-11-17T15:32:30.574Z,6.22
2022-11-17T15:35:03.345Z,6.55
2022-11-17T15:37:35.889Z,5.85
2022-11-17T15:40:09.325Z,4.22
2022-11-17T15:42:41.761Z,5.93
2022-11-17T15:45:14.859Z,5.55
2022-11-17T15:47:49.883Z,6.47
2022-11-17T15:50:22.674Z,5.97
2022-11-17T15:53:04.154Z,5.85
2022-11-17T15:55:37.461Z,6.18
2022-11-17T15:58:09.951Z,5.15
2022-11-17T16:00:42.757Z,5.75
2022-11-17T16:03:15.293Z,5.70
2022-11-17T16:05:48.072Z,5.68
2022-11-17T16:08:20.699Z,6.57
2022-11-17T16:10:53.522Z,6.63
2022-11-17T16:13:26.322Z,7.78
2022-11-17T16:15:59.483Z,9.50
2022-11-17T16:18:37.748Z,13.25
2022-11-17T16:21:12.864Z,13.00
2022-11-17T16:23:48.415Z,17.05
2022-11-17T16:26:22.176Z,16.58
2022-11-17T16:29:04.262Z,14.65
2022-11-17T16:31:37.795Z,14.70
2022-11-17T16:34:19.003Z,13.00
2022-11-17T16:36:52.893Z,13.40
2022-11-17T16:39:25.348Z,13.80
2022-11-17T16:42:00.214Z,13.27
2022-11-17T16:44:32.733Z,13.73
2022-11-17T16:47:05.556Z,12.30
2022-11-17T16:49:38.039Z,12.45
2022-11-17T16:52:10.808Z,11.07
2022-11-17T16:54:43.381Z,11.02
2022-11-17T16:57:16.424Z,9.75
2022-11-17T16:59:49.288Z,10.85
2022-11-17T17:02:22.338Z,10.82
2022-11-17T17:04:54.797Z,9.75
2022-11-17T17:07:27.613Z,8.90
2022-11-17T17:10:00.171Z,8.88
2022-11-17T17:12:33.534Z,10.00
2022-11-17T17:15:06.507Z,8.77
2022-11-17T17:17:39.261Z,8.68
2022-11-17T17:20:12.161Z,9.32
2022-11-17T17:22:44.899Z,8.93
2022-11-17T17:25:17.401Z,9.77
2022-11-17T17:27:50.137Z,9.55
2022-11-17T17:30:22.619Z,9.50
2022-11-17T17:32:55.347Z,9.55
2022-11-17T17:35:27.811Z,8.93
2022-11-17T17:38:00.514Z,10.02
2022-11-17T17:40:34.279Z,9.85
2022-11-17T17:43:07.000Z,8.60
2022-11-17T17:45:39.535Z,10.40
2022-11-17T17:48:12.652Z,10.15
2022-11-17T17:50:45.132Z,10.35
2022-11-17T17:53:17.888Z,8.93
2022-11-17T17:55:50.349Z,9.27
2022-11-17T17:58:23.174Z,7.18
2022-11-17T18:00:56.351Z,8.50
2022-11-17T18:03:29.182Z,10.23
2022-11-17T18:06:01.813Z,8.07
2022-11-17T18:08:36.380Z,8.57
2022-11-17T18:11:12.533Z,8.52
2022-11-17T18:13:48.574Z,8.05
2022-11-17T18:16:26.755Z,7.63
2022-11-17T18:19:00.574Z,8.43
2022-11-17T18:21:33.363Z,8.80
2022-11-17T18:24:06.578Z,9.07
2022-11-17T18:26:41.103Z,8.32
2022-11-17T18:29:16.618Z,8.27
2022-11-17T18:31:49.693Z,8.02
2022-11-17T18:34:24.283Z,8.85
2022-11-17T18:36:56.848Z,8.63
2022-11-17T18:39:31.374Z,8.73
2022-11-17T18:42:04.211Z,9.68
2022-11-17T18:44:36.948Z,9.63
2022-11-17T18:47:09.421Z,10.40
2022-11-17T18:49:42.232Z,10.07
2022-11-17T18:52:14.743Z,11.02
2022-11-17T18:54:47.491Z,10.65
2022-11-17T18:57:20.086Z,10.23
2022-11-17T18:59:52.814Z,12.60
2022-11-17T19:02:25.276Z,10.77
2022-11-17T19:04:59.057Z,12.73
2022-11-17T19:07:32.665Z,13.02
2022-11-17T19:10:05.731Z,12.45
2022-11-17T19:12:38.387Z,13.45
2022-11-17T19:15:11.601Z,13.05
2022-11-17T19:17:44.081Z,11.98
2022-11-17T19:20:17.137Z,11.35
2022-11-17T19:22:49.612Z,12.90
2022-11-17T19:25:22.370Z,11.73
2022-11-17T19:27:54.849Z,12.65
2022-11-17T19:30:27.609Z,10.90
2022-11-17T19:33:00.211Z,12.45
2022-11-17T19:35:36.334Z,11.52
2022-11-17T19:38:08.845Z,13.10
2022-11-17T19:40:41.570Z,12.88
2022-11-17T19:43:17.813Z,11.40
2022-11-17T19:45:50.593Z,13.48
2022-11-17T19:48:23.045Z,12.70
2022-11-17T19:50:56.517Z,12.13
2022-11-17T19:53:28.996Z,12.88
2022-11-17T19:56:01.733Z,11.90
2022-11-17T19:58:34.483Z,13.02
2022-11-17T20:01:12.839Z,13.35
2022-11-17T20:03:49.028Z,12.95
2022-11-17T20:06:27.167Z,11.70
2022-11-17T20:08:59.725Z,14.63
2022-11-17T20:11:35.809Z,13.40
2022-11-17T20:14:08.537Z,12.27
2022-11-17T20:16:47.288Z,13.18
2022-11-17T20:19:19.922Z,11.88
2022-11-17T20:21:52.920Z,13.23
2022-11-17T20:24:25.458Z,12.93
2022-11-17T20:26:58.217Z,13.60
2022-11-17T20:29:30.701Z,12.88
2022-11-17T20:32:03.569Z,14.18
2022-11-17T20:34:36.051Z,14.73
2022-11-17T20:37:08.971Z,11.40
2022-11-17T20:39:41.465Z,15.02
2022-11-17T20:42:17.381Z,14.75
2022-11-17T20:44:50.165Z,10.45
2022-11-17T20:47:27.522Z,14.70
2022-11-17T20:50:00.131Z,12.50
2022-11-17T20:52:32.968Z,13.02
2022-11-17T20:55:06.776Z,13.10
2022-11-17T20:57:39.567Z,14.00
2022-11-17T21:00:12.704Z,13.18
2022-11-17T21:02:45.614Z,14.20
2022-11-17T21:05:18.153Z,14.60
2022-11-17T21:07:50.892Z,12.57
2022-11-17T21:10:23.419Z,16.38
2022-11-17T21:12:57.271Z,13.93
2022-11-17T21:15:29.753Z,14.35
2022-11-17T21:18:20.829Z,13.88
2022-11-17T21:20:57.511Z,17.02
2022-11-17T21:23:30.900Z,17.52
2022-11-17T21:26:05.145Z,16.98
2022-11-17T21:28:38.880Z,17.05
2022-11-17T21:31:12.413Z,17.00
2022-11-17T21:33:45.659Z,19.90
2022-11-17T21:36:18.521Z,18.73
2022-11-17T21:38:51.918Z,19.95
2022-11-17T21:41:27.668Z,20.08
2022-11-17T21:44:02.917Z,16.73
2022-11-17T21:46:36.385Z,11.60
2022-11-17T21:49:12.178Z,19.20
2022-11-17T21:51:45.545Z,17.90
2022-11-17T21:54:18.343Z,17.40
2022-11-17T21:56:50.843Z,21.20
2022-11-17T21:59:23.682Z,19.85
2022-11-17T22:01:56.157Z,19.15
2022-11-17T22:04:28.954Z,19.40
2022-11-17T22:07:01.675Z,18.25
2022-11-17T22:09:35.834Z,19.30
2022-11-17T22:12:08.327Z,16.90
2022-11-17T22:14:41.047Z,18.17
2022-11-17T22:17:13.511Z,19.80
2022-11-17T22:19:46.259Z,14.93
2022-11-17T22:22:18.728Z,18.58
2022-11-17T22:24:51.757Z,17.23
2022-11-17T22:27:26.384Z,11.15
2022-11-17T22:29:59.394Z,17.65
2022-11-17T22:32:31.864Z,17.50
2022-11-17T22:35:04.902Z,17.23
2022-11-17T22:37:37.372Z,17.30
2022-11-17T22:40:10.560Z,18.25
2022-11-17T22:42:42.992Z,17.88
2022-11-17T22:45:16.495Z,19.00
2022-11-17T22:47:48.952Z,14.75
2022-11-17T22:50:21.991Z,18.27
2022-11-17T22:52:54.889Z,19.20
2022-11-17T22:55:27.708Z,16.48
2022-11-17T22:58:00.444Z,17.58
2022-11-17T23:00:33.204Z,16.63
2022-11-17T23:03:05.805Z,16.98
2022-11-17T23:05:38.603Z,16.45
2022-11-17T23:08:11.061Z,15.40
2022-11-17T23:10:44.039Z,15.93
2022-11-17T23:13:16.499Z,15.73
2022-11-17T23:15:49.224Z,18.33
2022-11-17T23:18:22.170Z,19.17
2022-11-17T23:20:54.902Z,15.77
2022-11-17T23:23:31.528Z,16.88
2022-11-17T23:26:05.755Z,14.52
2022-11-17T23:28:43.471Z,12.90
2022-11-17T23:31:17.456Z,14.68
2022-11-17T23:33:50.144Z,12.63
2022-11-17T23:36:23.390Z,10.70
2022-11-17T23:38:57.781Z,14.80
2022-11-17T23:41:30.792Z,13.60
2022-11-17T23:44:03.322Z,12.95
2022-11-17T23:46:36.140Z,12.18
2022-11-17T23:49:08.621Z,10.35
2022-11-17T23:51:41.397Z,9.25
2022-11-17T23:54:14.272Z,7.97
2022-11-17T23:56:50.517Z,11.85
2022-11-17T23:59:23.032Z,10.43
